sensor_id;sensor_type;location;lat;lon;timestamp;P1;durP1;ratioP1;P2;durP2;ratioP2
72676;SDS011;60755;51.374;10.662;2023-04-24T00:01:37;2.10;;;2.00;;
72676;SDS011;60755;51.374;10.662;2023-04-24T00:04:05;2.10;;;2.00;;
72676;SDS011;60755;51.374;10.662;2023-04-24T00:06:32;3.80;;;2.10;;
72676;SDS011;60755;51.374;10.662;2023-04-24T00:08:59;1.83;;;1.83;;
72676;SDS011;60755;51.374;10.662;2023-04-24T00:11:26;2.10;;;2.10;;
72676;SDS011;60755;51.374;10.662;2023-04-24T00:13:55;2.10;;;2.00;;
72676;SDS011;60755;51.374;10.662;2023-04-24T00:16:22;2.20;;;2.10;;
72676;SDS011;60755;51.374;10.662;2023-04-24T00:18:49;2.07;;;2.00;;
72676;SDS011;60755;51.374;10.662;2023-04-24T00:21:17;2.50;;;2.40;;
72676;SDS011;60755;51.374;10.662;2023-04-24T00:23:44;2.60;;;2.40;;
72676;SDS011;60755;51.374;10.662;2023-04-24T00:26:11;2.23;;;2.00;;
72676;SDS011;60755;51.374;10.662;2023-04-24T00:28:39;1.90;;;1.90;;
72676;SDS011;60755;51.374;10.662;2023-04-24T00:31:07;1.87;;;1.87;;
72676;SDS011;60755;51.374;10.662;2023-04-24T00:33:34;3.20;;;2.37;;
72676;SDS011;60755;51.374;10.662;2023-04-24T00:36:01;2.17;;;2.07;;
72676;SDS011;60755;51.374;10.662;2023-04-24T00:38:28;2.20;;;2.00;;
72676;SDS011;60755;51.374;10.662;2023-04-24T00:40:55;2.47;;;2.27;;
72676;SDS011;60755;51.374;10.662;2023-04-24T00:43:22;2.27;;;2.17;;
72676;SDS011;60755;51.374;10.662;2023-04-24T00:45:49;2.47;;;2.37;;
72676;SDS011;60755;51.374;10.662;2023-04-24T00:48:17;2.30;;;2.20;;
72676;SDS011;60755;51.374;10.662;2023-04-24T00:50:45;2.37;;;2.23;;
72676;SDS011;60755;51.374;10.662;2023-04-24T00:53:13;2.17;;;2.07;;
72676;SDS011;60755;51.374;10.662;2023-04-24T00:55:40;2.17;;;2.07;;
72676;SDS011;60755;51.374;10.662;2023-04-24T00:58:07;2.40;;;2.30;;
72676;SDS011;60755;51.374;10.662;2023-04-24T01:00:34;2.10;;;2.00;;
72676;SDS011;60755;51.374;10.662;2023-04-24T01:03:02;2.60;;;2.40;;
72676;SDS011;60755;51.374;10.662;2023-04-24T01:05:33;3.47;;;2.70;;
72676;SDS011;60755;51.374;10.662;2023-04-24T01:08:00;2.10;;;2.00;;
72676;SDS011;60755;51.374;10.662;2023-04-24T01:10:29;2.43;;;2.33;;
72676;SDS011;60755;51.374;10.662;2023-04-24T01:12:57;2.23;;;2.17;;
72676;SDS011;60755;51.374;10.662;2023-04-24T01:15:25;2.10;;;2.00;;
72676;SDS011;60755;51.374;10.662;2023-04-24T01:17:52;2.20;;;2.10;;
72676;SDS011;60755;51.374;10.662;2023-04-24T01:20:20;2.60;;;2.40;;
72676;SDS011;60755;51.374;10.662;2023-04-24T01:22:48;2.40;;;2.30;;
72676;SDS011;60755;51.374;10.662;2023-04-24T01:25:15;2.43;;;2.30;;
72676;SDS011;60755;51.374;10.662;2023-04-24T01:27:42;2.60;;;2.40;;
72676;SDS011;60755;51.374;10.662;2023-04-24T01:30:11;2.83;;;2.57;;
72676;SDS011;60755;51.374;10.662;2023-04-24T01:32:39;2.83;;;2.63;;
72676;SDS011;60755;51.374;10.662;2023-04-24T01:35:09;2.73;;;2.53;;
72676;SDS011;60755;51.374;10.662;2023-04-24T01:37:37;2.60;;;2.40;;
72676;SDS011;60755;51.374;10.662;2023-04-24T01:40:06;2.50;;;2.40;;
72676;SDS011;60755;51.374;10.662;2023-04-24T01:42:34;2.70;;;2.50;;
72676;SDS011;60755;51.374;10.662;2023-04-24T01:45:02;2.30;;;2.20;;
72676;SDS011;60755;51.374;10.662;2023-04-24T01:47:30;2.27;;;2.20;;
72676;SDS011;60755;51.374;10.662;2023-04-24T01:49:58;2.90;;;2.70;;
72676;SDS011;60755;51.374;10.662;2023-04-24T01:52:25;4.17;;;2.40;;
72676;SDS011;60755;51.374;10.662;2023-04-24T01:54:54;2.50;;;2.40;;
72676;SDS011;60755;51.374;10.662;2023-04-24T01:57:23;2.57;;;2.37;;
72676;SDS011;60755;51.374;10.662;2023-04-24T01:59:50;2.27;;;2.17;;
72676;SDS011;60755;51.374;10.662;2023-04-24T02:02:17;2.33;;;2.23;;
72676;SDS011;60755;51.374;10.662;2023-04-24T02:04:46;2.40;;;2.20;;
72676;SDS011;60755;51.374;10.662;2023-04-24T02:07:13;2.30;;;2.20;;
72676;SDS011;60755;51.374;10.662;2023-04-24T02:09:40;2.10;;;2.00;;
72676;SDS011;60755;51.374;10.662;2023-04-24T02:12:07;4.77;;;2.40;;
72676;SDS011;60755;51.374;10.662;2023-04-24T02:14:35;2.10;;;2.00;;
72676;SDS011;60755;51.374;10.662;2023-04-24T02:17:02;2.50;;;2.30;;
72676;SDS011;60755;51.374;10.662;2023-04-24T02:19:30;2.40;;;2.30;;
72676;SDS011;60755;51.374;10.662;2023-04-24T02:21:57;2.33;;;2.13;;
72676;SDS011;60755;51.374;10.662;2023-04-24T02:24:24;2.13;;;2.03;;
72676;SDS011;60755;51.374;10.662;2023-04-24T02:26:51;2.30;;;2.20;;
72676;SDS011;60755;51.374;10.662;2023-04-24T02:29:19;2.43;;;2.23;;
72676;SDS011;60755;51.374;10.662;2023-04-24T02:31:47;2.43;;;2.23;;
72676;SDS011;60755;51.374;10.662;2023-04-24T02:34:14;2.53;;;2.43;;
72676;SDS011;60755;51.374;10.662;2023-04-24T02:36:41;2.50;;;2.40;;
72676;SDS011;60755;51.374;10.662;2023-04-24T02:39:08;3.20;;;2.37;;
72676;SDS011;60755;51.374;10.662;2023-04-24T02:41:35;2.60;;;2.40;;
72676;SDS011;60755;51.374;10.662;2023-04-24T02:44:02;2.93;;;2.63;;
72676;SDS011;60755;51.374;10.662;2023-04-24T02:46:30;3.00;;;2.80;;
72676;SDS011;60755;51.374;10.662;2023-04-24T02:48:58;3.30;;;3.10;;
72676;SDS011;60755;51.374;10.662;2023-04-24T02:51:25;2.87;;;2.77;;
72676;SDS011;60755;51.374;10.662;2023-04-24T02:53:52;3.10;;;3.00;;
72676;SDS011;60755;51.374;10.662;2023-04-24T02:56:19;4.10;;;3.20;;
72676;SDS011;60755;51.374;10.662;2023-04-24T02:58:46;3.07;;;2.87;;
72676;SDS011;60755;51.374;10.662;2023-04-24T03:01:13;3.93;;;3.27;;
72676;SDS011;60755;51.374;10.662;2023-04-24T03:03:40;3.43;;;3.17;;
72676;SDS011;60755;51.374;10.662;2023-04-24T03:06:09;3.50;;;3.20;;
72676;SDS011;60755;51.374;10.662;2023-04-24T03:08:36;3.63;;;3.43;;
72676;SDS011;60755;51.374;10.662;2023-04-24T03:11:03;3.57;;;3.37;;
72676;SDS011;60755;51.374;10.662;2023-04-24T03:13:30;4.00;;;3.60;;
72676;SDS011;60755;51.374;10.662;2023-04-24T03:15:57;3.63;;;3.40;;
72676;SDS011;60755;51.374;10.662;2023-04-24T03:18:26;3.93;;;3.63;;
72676;SDS011;60755;51.374;10.662;2023-04-24T03:20:53;3.47;;;3.30;;
72676;SDS011;60755;51.374;10.662;2023-04-24T03:23:21;5.73;;;3.60;;
72676;SDS011;60755;51.374;10.662;2023-04-24T03:25:48;4.60;;;3.67;;
72676;SDS011;60755;51.374;10.662;2023-04-24T03:28:18;3.47;;;3.27;;
72676;SDS011;60755;51.374;10.662;2023-04-24T03:30:58;3.70;;;3.40;;
72676;SDS011;60755;51.374;10.662;2023-04-24T03:33:30;3.53;;;3.33;;
72676;SDS011;60755;51.374;10.662;2023-04-24T03:36:01;3.60;;;3.30;;
72676;SDS011;60755;51.374;10.662;2023-04-24T03:38:37;3.57;;;3.37;;
72676;SDS011;60755;51.374;10.662;2023-04-24T03:41:33;3.90;;;3.60;;
72676;SDS011;60755;51.374;10.662;2023-04-24T03:44:07;3.33;;;3.07;;
72676;SDS011;60755;51.374;10.662;2023-04-24T03:46:34;3.60;;;3.30;;
72676;SDS011;60755;51.374;10.662;2023-04-24T03:49:01;3.60;;;3.30;;
72676;SDS011;60755;51.374;10.662;2023-04-24T03:51:32;3.57;;;3.37;;
72676;SDS011;60755;51.374;10.662;2023-04-24T03:54:15;3.43;;;3.23;;
72676;SDS011;60755;51.374;10.662;2023-04-24T03:56:44;3.63;;;3.30;;
72676;SDS011;60755;51.374;10.662;2023-04-24T03:59:11;3.37;;;3.17;;
72676;SDS011;60755;51.374;10.662;2023-04-24T04:01:40;3.30;;;3.10;;
72676;SDS011;60755;51.374;10.662;2023-04-24T04:04:13;3.23;;;3.03;;
72676;SDS011;60755;51.374;10.662;2023-04-24T04:06:41;3.27;;;3.00;;
72676;SDS011;60755;51.374;10.662;2023-04-24T04:09:09;2.97;;;2.70;;
72676;SDS011;60755;51.374;10.662;2023-04-24T04:11:37;3.20;;;2.90;;
72676;SDS011;60755;51.374;10.662;2023-04-24T04:14:04;3.00;;;2.80;;
72676;SDS011;60755;51.374;10.662;2023-04-24T04:16:34;2.73;;;2.50;;
72676;SDS011;60755;51.374;10.662;2023-04-24T04:19:02;2.50;;;2.33;;
72676;SDS011;60755;51.374;10.662;2023-04-24T04:21:30;2.87;;;2.77;;
72676;SDS011;60755;51.374;10.662;2023-04-24T04:24:08;2.60;;;2.50;;
72676;SDS011;60755;51.374;10.662;2023-04-24T04:26:41;3.20;;;2.90;;
72676;SDS011;60755;51.374;10.662;2023-04-24T04:29:18;2.67;;;2.53;;
72676;SDS011;60755;51.374;10.662;2023-04-24T04:31:47;2.77;;;2.67;;
72676;SDS011;60755;51.374;10.662;2023-04-24T04:34:14;2.30;;;2.23;;
72676;SDS011;60755;51.374;10.662;2023-04-24T04:36:41;2.40;;;2.30;;
72676;SDS011;60755;51.374;10.662;2023-04-24T04:39:29;2.30;;;2.20;;
72676;SDS011;60755;51.374;10.662;2023-04-24T04:42:03;2.40;;;2.30;;
72676;SDS011;60755;51.374;10.662;2023-04-24T04:44:37;2.90;;;2.20;;
72676;SDS011;60755;51.374;10.662;2023-04-24T04:47:06;2.10;;;2.00;;
72676;SDS011;60755;51.374;10.662;2023-04-24T04:49:35;2.30;;;2.17;;
72676;SDS011;60755;51.374;10.662;2023-04-24T04:52:06;2.10;;;2.10;;
72676;SDS011;60755;51.374;10.662;2023-04-24T04:54:33;2.30;;;2.13;;
72676;SDS011;60755;51.374;10.662;2023-04-24T04:57:00;2.00;;;1.90;;
72676;SDS011;60755;51.374;10.662;2023-04-24T04:59:29;2.17;;;1.87;;
72676;SDS011;60755;51.374;10.662;2023-04-24T05:02:02;2.03;;;1.90;;
72676;SDS011;60755;51.374;10.662;2023-04-24T05:04:30;3.20;;;1.80;;
72676;SDS011;60755;51.374;10.662;2023-04-24T05:06:57;1.70;;;1.70;;
72676;SDS011;60755;51.374;10.662;2023-04-24T05:09:26;1.87;;;1.77;;
72676;SDS011;60755;51.374;10.662;2023-04-24T05:12:00;1.77;;;1.77;;
72676;SDS011;60755;51.374;10.662;2023-04-24T05:14:31;1.87;;;1.87;;
72676;SDS011;60755;51.374;10.662;2023-04-24T05:16:58;2.13;;;2.00;;
72676;SDS011;60755;51.374;10.662;2023-04-24T05:19:25;1.90;;;1.80;;
72676;SDS011;60755;51.374;10.662;2023-04-24T05:21:53;1.83;;;1.83;;
72676;SDS011;60755;51.374;10.662;2023-04-24T05:24:20;2.30;;;1.80;;
72676;SDS011;60755;51.374;10.662;2023-04-24T05:27:05;1.73;;;1.73;;
72676;SDS011;60755;51.374;10.662;2023-04-24T05:29:40;1.50;;;1.40;;
72676;SDS011;60755;51.374;10.662;2023-04-24T05:32:08;1.63;;;1.53;;
72676;SDS011;60755;51.374;10.662;2023-04-24T05:34:35;1.73;;;1.50;;
72676;SDS011;60755;51.374;10.662;2023-04-24T05:37:02;1.40;;;1.30;;
72676;SDS011;60755;51.374;10.662;2023-04-24T05:39:33;1.40;;;1.40;;
72676;SDS011;60755;51.374;10.662;2023-04-24T05:42:00;4.80;;;1.40;;
72676;SDS011;60755;51.374;10.662;2023-04-24T05:44:28;1.47;;;1.37;;
72676;SDS011;60755;51.374;10.662;2023-04-24T05:46:56;1.63;;;1.40;;
72676;SDS011;60755;51.374;10.662;2023-04-24T05:49:24;2.57;;;1.70;;
72676;SDS011;60755;51.374;10.662;2023-04-24T05:51:51;2.17;;;1.50;;
72676;SDS011;60755;51.374;10.662;2023-04-24T05:54:18;1.87;;;1.80;;
72676;SDS011;60755;51.374;10.662;2023-04-24T05:56:45;3.30;;;1.63;;
72676;SDS011;60755;51.374;10.662;2023-04-24T05:59:16;1.67;;;1.57;;
72676;SDS011;60755;51.374;10.662;2023-04-24T06:01:44;1.40;;;1.40;;
72676;SDS011;60755;51.374;10.662;2023-04-24T06:04:19;1.60;;;1.40;;
72676;SDS011;60755;51.374;10.662;2023-04-24T06:06:46;2.97;;;1.70;;
72676;SDS011;60755;51.374;10.662;2023-04-24T06:09:16;1.67;;;1.60;;
72676;SDS011;60755;51.374;10.662;2023-04-24T06:11:43;1.50;;;1.50;;
72676;SDS011;60755;51.374;10.662;2023-04-24T06:14:12;1.60;;;1.50;;
72676;SDS011;60755;51.374;10.662;2023-04-24T06:16:59;1.53;;;1.47;;
72676;SDS011;60755;51.374;10.662;2023-04-24T06:19:40;1.47;;;1.40;;
72676;SDS011;60755;51.374;10.662;2023-04-24T06:22:07;1.93;;;1.60;;
72676;SDS011;60755;51.374;10.662;2023-04-24T06:24:34;1.77;;;1.50;;
72676;SDS011;60755;51.374;10.662;2023-04-24T06:27:01;1.37;;;1.37;;
72676;SDS011;60755;51.374;10.662;2023-04-24T06:29:28;1.37;;;1.30;;
72676;SDS011;60755;51.374;10.662;2023-04-24T06:31:55;1.60;;;1.50;;
72676;SDS011;60755;51.374;10.662;2023-04-24T06:34:22;2.17;;;1.63;;
72676;SDS011;60755;51.374;10.662;2023-04-24T06:36:50;1.70;;;1.60;;
72676;SDS011;60755;51.374;10.662;2023-04-24T06:39:17;1.40;;;1.40;;
72676;SDS011;60755;51.374;10.662;2023-04-24T06:41:44;1.60;;;1.50;;
72676;SDS011;60755;51.374;10.662;2023-04-24T06:44:18;1.40;;;1.40;;
72676;SDS011;60755;51.374;10.662;2023-04-24T06:46:45;1.70;;;1.60;;
72676;SDS011;60755;51.374;10.662;2023-04-24T06:49:12;1.50;;;1.50;;
72676;SDS011;60755;51.374;10.662;2023-04-24T06:51:41;2.13;;;1.50;;
72676;SDS011;60755;51.374;10.662;2023-04-24T06:54:09;1.50;;;1.40;;
72676;SDS011;60755;51.374;10.662;2023-04-24T06:56:36;1.37;;;1.20;;
72676;SDS011;60755;51.374;10.662;2023-04-24T06:59:03;1.40;;;1.40;;
72676;SDS011;60755;51.374;10.662;2023-04-24T07:01:30;1.30;;;1.20;;
72676;SDS011;60755;51.374;10.662;2023-04-24T07:03:57;1.10;;;1.10;;
72676;SDS011;60755;51.374;10.662;2023-04-24T07:06:24;1.27;;;1.20;;
72676;SDS011;60755;51.374;10.662;2023-04-24T07:08:52;1.30;;;1.25;;
72676;SDS011;60755;51.374;10.662;2023-04-24T07:11:23;2.72;;;1.17;;
72676;SDS011;60755;51.374;10.662;2023-04-24T07:13:54;1.23;;;1.23;;
72676;SDS011;60755;51.374;10.662;2023-04-24T07:16:21;1.20;;;1.20;;
72676;SDS011;60755;51.374;10.662;2023-04-24T07:18:48;1.40;;;1.30;;
72676;SDS011;60755;51.374;10.662;2023-04-24T07:21:15;1.35;;;1.35;;
72676;SDS011;60755;51.374;10.662;2023-04-24T07:23:42;1.35;;;1.25;;
72676;SDS011;60755;51.374;10.662;2023-04-24T07:26:09;1.23;;;1.23;;
72676;SDS011;60755;51.374;10.662;2023-04-24T07:28:37;1.30;;;1.30;;
72676;SDS011;60755;51.374;10.662;2023-04-24T07:31:04;1.45;;;1.45;;
72676;SDS011;60755;51.374;10.662;2023-04-24T07:33:31;3.03;;;1.35;;
72676;SDS011;60755;51.374;10.662;2023-04-24T07:35:58;1.08;;;1.08;;
72676;SDS011;60755;51.374;10.662;2023-04-24T07:38:25;1.60;;;1.33;;
72676;SDS011;60755;51.374;10.662;2023-04-24T07:40:52;1.33;;;1.33;;
72676;SDS011;60755;51.374;10.662;2023-04-24T07:43:19;1.40;;;1.27;;
72676;SDS011;60755;51.374;10.662;2023-04-24T07:45:48;1.20;;;1.20;;
72676;SDS011;60755;51.374;10.662;2023-04-24T07:48:15;1.42;;;1.20;;
72676;SDS011;60755;51.374;10.662;2023-04-24T07:50:43;1.40;;;1.40;;
72676;SDS011;60755;51.374;10.662;2023-04-24T07:53:10;1.40;;;1.40;;
72676;SDS011;60755;51.374;10.662;2023-04-24T07:55:37;2.97;;;1.77;;
72676;SDS011;60755;51.374;10.662;2023-04-24T07:58:04;1.98;;;1.80;;
72676;SDS011;60755;51.374;10.662;2023-04-24T08:00:31;1.58;;;1.48;;
72676;SDS011;60755;51.374;10.662;2023-04-24T08:02:59;2.35;;;1.70;;
72676;SDS011;60755;51.374;10.662;2023-04-24T08:05:27;1.88;;;1.88;;
72676;SDS011;60755;51.374;10.662;2023-04-24T08:07:54;1.95;;;1.95;;
72676;SDS011;60755;51.374;10.662;2023-04-24T08:10:21;2.35;;;2.25;;
72676;SDS011;60755;51.374;10.662;2023-04-24T08:12:48;2.00;;;1.90;;
72676;SDS011;60755;51.374;10.662;2023-04-24T08:15:15;2.45;;;2.35;;
72676;SDS011;60755;51.374;10.662;2023-04-24T08:17:42;2.45;;;2.35;;
72676;SDS011;60755;51.374;10.662;2023-04-24T08:20:11;2.50;;;2.40;;
72676;SDS011;60755;51.374;10.662;2023-04-24T08:22:39;2.65;;;2.53;;
72676;SDS011;60755;51.374;10.662;2023-04-24T08:25:07;2.40;;;2.20;;
72676;SDS011;60755;51.374;10.662;2023-04-24T08:27:34;2.00;;;1.90;;
72676;SDS011;60755;51.374;10.662;2023-04-24T08:30:04;2.20;;;2.20;;
72676;SDS011;60755;51.374;10.662;2023-04-24T08:32:32;2.30;;;2.20;;
72676;SDS011;60755;51.374;10.662;2023-04-24T08:35:00;2.33;;;2.20;;
72676;SDS011;60755;51.374;10.662;2023-04-24T08:37:28;2.00;;;1.90;;
72676;SDS011;60755;51.374;10.662;2023-04-24T08:39:55;2.50;;;2.40;;
72676;SDS011;60755;51.374;10.662;2023-04-24T08:42:22;3.78;;;2.40;;
72676;SDS011;60755;51.374;10.662;2023-04-24T08:44:50;2.03;;;2.03;;
72676;SDS011;60755;51.374;10.662;2023-04-24T08:47:16;2.00;;;1.90;;
72676;SDS011;60755;51.374;10.662;2023-04-24T08:49:46;1.85;;;1.75;;
72676;SDS011;60755;51.374;10.662;2023-04-24T08:52:15;1.98;;;1.65;;
72676;SDS011;60755;51.374;10.662;2023-04-24T08:54:44;1.60;;;1.60;;
72676;SDS011;60755;51.374;10.662;2023-04-24T08:57:12;1.85;;;1.77;;
72676;SDS011;60755;51.374;10.662;2023-04-24T08:59:41;1.80;;;1.80;;
72676;SDS011;60755;51.374;10.662;2023-04-24T09:02:10;2.25;;;2.15;;
72676;SDS011;60755;51.374;10.662;2023-04-24T09:04:37;3.70;;;2.17;;
72676;SDS011;60755;51.374;10.662;2023-04-24T09:07:05;2.20;;;2.20;;
72676;SDS011;60755;51.374;10.662;2023-04-24T09:09:33;1.80;;;1.80;;
72676;SDS011;60755;51.374;10.662;2023-04-24T09:12:03;2.27;;;2.20;;
72676;SDS011;60755;51.374;10.662;2023-04-24T09:14:30;2.37;;;2.27;;
72676;SDS011;60755;51.374;10.662;2023-04-24T09:16:58;2.70;;;2.60;;
72676;SDS011;60755;51.374;10.662;2023-04-24T09:19:25;2.80;;;2.43;;
72676;SDS011;60755;51.374;10.662;2023-04-24T09:21:52;2.40;;;2.30;;
72676;SDS011;60755;51.374;10.662;2023-04-24T09:24:20;2.83;;;2.30;;
72676;SDS011;60755;51.374;10.662;2023-04-24T09:26:48;2.40;;;2.33;;
72676;SDS011;60755;51.374;10.662;2023-04-24T09:29:25;2.87;;;2.67;;
72676;SDS011;60755;51.374;10.662;2023-04-24T09:31:52;2.53;;;2.43;;
72676;SDS011;60755;51.374;10.662;2023-04-24T09:34:21;3.10;;;2.90;;
72676;SDS011;60755;51.374;10.662;2023-04-24T09:36:49;3.10;;;2.90;;
72676;SDS011;60755;51.374;10.662;2023-04-24T09:39:16;3.27;;;3.10;;
72676;SDS011;60755;51.374;10.662;2023-04-24T09:41:45;3.07;;;2.87;;
72676;SDS011;60755;51.374;10.662;2023-04-24T09:44:14;3.25;;;3.00;;
72676;SDS011;60755;51.374;10.662;2023-04-24T09:46:44;7.85;;;3.03;;
72676;SDS011;60755;51.374;10.662;2023-04-24T09:49:13;3.07;;;2.87;;
72676;SDS011;60755;51.374;10.662;2023-04-24T09:51:41;2.35;;;2.25;;
72676;SDS011;60755;51.374;10.662;2023-04-24T09:54:15;2.50;;;2.40;;
72676;SDS011;60755;51.374;10.662;2023-04-24T09:56:44;2.60;;;2.50;;
72676;SDS011;60755;51.374;10.662;2023-04-24T09:59:12;2.60;;;2.50;;
72676;SDS011;60755;51.374;10.662;2023-04-24T10:01:39;3.17;;;2.97;;
72676;SDS011;60755;51.374;10.662;2023-04-24T10:04:17;2.97;;;2.87;;
72676;SDS011;60755;51.374;10.662;2023-04-24T10:06:45;3.03;;;2.90;;
72676;SDS011;60755;51.374;10.662;2023-04-24T10:09:14;3.30;;;3.10;;
72676;SDS011;60755;51.374;10.662;2023-04-24T10:11:41;3.47;;;3.17;;
72676;SDS011;60755;51.374;10.662;2023-04-24T10:14:11;2.97;;;2.87;;
72676;SDS011;60755;51.374;10.662;2023-04-24T10:16:40;3.23;;;3.10;;
72676;SDS011;60755;51.374;10.662;2023-04-24T10:19:07;3.60;;;3.35;;
72676;SDS011;60755;51.374;10.662;2023-04-24T10:21:36;4.17;;;3.20;;
72676;SDS011;60755;51.374;10.662;2023-04-24T10:24:07;4.50;;;3.40;;
72676;SDS011;60755;51.374;10.662;2023-04-24T10:26:35;3.72;;;3.53;;
72676;SDS011;60755;51.374;10.662;2023-04-24T10:29:03;3.53;;;3.22;;
72676;SDS011;60755;51.374;10.662;2023-04-24T10:31:35;3.35;;;3.15;;
72676;SDS011;60755;51.374;10.662;2023-04-24T10:34:03;3.45;;;3.25;;
72676;SDS011;60755;51.374;10.662;2023-04-24T10:36:31;3.53;;;3.30;;
72676;SDS011;60755;51.374;10.662;2023-04-24T10:39:03;3.75;;;3.45;;
72676;SDS011;60755;51.374;10.662;2023-04-24T10:41:36;3.05;;;2.80;;
72676;SDS011;60755;51.374;10.662;2023-04-24T10:44:05;3.03;;;2.90;;
72676;SDS011;60755;51.374;10.662;2023-04-24T10:46:32;3.67;;;2.60;;
72676;SDS011;60755;51.374;10.662;2023-04-24T10:49:00;3.28;;;3.08;;
72676;SDS011;60755;51.374;10.662;2023-04-24T10:51:45;3.53;;;3.10;;
72676;SDS011;60755;51.374;10.662;2023-04-24T10:54:24;3.20;;;3.10;;
72676;SDS011;60755;51.374;10.662;2023-04-24T10:56:52;3.20;;;3.00;;
72676;SDS011;60755;51.374;10.662;2023-04-24T10:59:26;3.33;;;3.10;;
72676;SDS011;60755;51.374;10.662;2023-04-24T11:01:54;2.85;;;2.75;;
72676;SDS011;60755;51.374;10.662;2023-04-24T11:04:31;2.90;;;2.80;;
72676;SDS011;60755;51.374;10.662;2023-04-24T11:07:00;3.95;;;3.65;;
72676;SDS011;60755;51.374;10.662;2023-04-24T11:09:31;3.05;;;2.95;;
72676;SDS011;60755;51.374;10.662;2023-04-24T11:12:03;3.00;;;2.85;;
72676;SDS011;60755;51.374;10.662;2023-04-24T11:17:31;3.15;;;2.70;;
72676;SDS011;60755;51.374;10.662;2023-04-24T11:20:02;2.72;;;2.63;;
72676;SDS011;60755;51.374;10.662;2023-04-24T11:22:32;3.17;;;2.90;;
72676;SDS011;60755;51.374;10.662;2023-04-24T11:25:02;2.63;;;2.53;;
72676;SDS011;60755;51.374;10.662;2023-04-24T11:27:31;2.90;;;2.70;;
72676;SDS011;60755;51.374;10.662;2023-04-24T11:30:05;2.78;;;2.63;;
72676;SDS011;60755;51.374;10.662;2023-04-24T11:32:34;3.97;;;3.00;;
72676;SDS011;60755;51.374;10.662;2023-04-24T11:35:02;2.60;;;2.50;;
72676;SDS011;60755;51.374;10.662;2023-04-24T11:37:33;2.85;;;2.65;;
72676;SDS011;60755;51.374;10.662;2023-04-24T11:40:03;2.78;;;2.58;;
72676;SDS011;60755;51.374;10.662;2023-04-24T11:42:33;2.50;;;2.40;;
72676;SDS011;60755;51.374;10.662;2023-04-24T11:45:01;2.03;;;2.03;;
72676;SDS011;60755;51.374;10.662;2023-04-24T11:47:29;2.00;;;2.00;;
72676;SDS011;60755;51.374;10.662;2023-04-24T11:49:58;2.28;;;2.17;;
72676;SDS011;60755;51.374;10.662;2023-04-24T11:52:25;2.30;;;2.15;;
72676;SDS011;60755;51.374;10.662;2023-04-24T11:54:52;2.30;;;2.20;;
72676;SDS011;60755;51.374;10.662;2023-04-24T11:57:21;2.33;;;2.25;;
72676;SDS011;60755;51.374;10.662;2023-04-24T11:59:48;2.15;;;2.15;;
72676;SDS011;60755;51.374;10.662;2023-04-24T12:02:22;2.00;;;2.00;;
72676;SDS011;60755;51.374;10.662;2023-04-24T12:04:50;2.00;;;2.00;;
72676;SDS011;60755;51.374;10.662;2023-04-24T12:07:17;2.00;;;2.00;;
72676;SDS011;60755;51.374;10.662;2023-04-24T12:09:44;1.83;;;1.73;;
72676;SDS011;60755;51.374;10.662;2023-04-24T12:12:12;1.90;;;1.80;;
72676;SDS011;60755;51.374;10.662;2023-04-24T12:14:45;1.70;;;1.60;;
72676;SDS011;60755;51.374;10.662;2023-04-24T12:17:14;1.60;;;1.60;;
72676;SDS011;60755;51.374;10.662;2023-04-24T12:19:44;1.80;;;1.80;;
72676;SDS011;60755;51.374;10.662;2023-04-24T12:22:12;2.05;;;1.80;;
72676;SDS011;60755;51.374;10.662;2023-04-24T12:27:22;1.60;;;1.60;;
72676;SDS011;60755;51.374;10.662;2023-04-24T12:29:53;2.05;;;1.95;;
72676;SDS011;60755;51.374;10.662;2023-04-24T12:32:22;1.60;;;1.60;;
72676;SDS011;60755;51.374;10.662;2023-04-24T12:34:50;2.45;;;2.35;;
72676;SDS011;60755;51.374;10.662;2023-04-24T12:37:17;1.75;;;1.75;;
72676;SDS011;60755;51.374;10.662;2023-04-24T12:39:55;2.00;;;1.90;;
72676;SDS011;60755;51.374;10.662;2023-04-24T12:42:25;2.63;;;1.97;;
72676;SDS011;60755;51.374;10.662;2023-04-24T12:44:57;1.80;;;1.70;;
72676;SDS011;60755;51.374;10.662;2023-04-24T12:47:25;1.60;;;1.60;;
72676;SDS011;60755;51.374;10.662;2023-04-24T12:49:53;1.60;;;1.60;;
72676;SDS011;60755;51.374;10.662;2023-04-24T12:52:20;1.30;;;1.20;;
72676;SDS011;60755;51.374;10.662;2023-04-24T12:54:49;1.30;;;1.30;;
72676;SDS011;60755;51.374;10.662;2023-04-24T12:57:16;1.20;;;1.20;;
72676;SDS011;60755;51.374;10.662;2023-04-24T12:59:44;1.40;;;1.40;;
72676;SDS011;60755;51.374;10.662;2023-04-24T13:02:12;1.40;;;1.40;;
72676;SDS011;60755;51.374;10.662;2023-04-24T13:04:43;1.40;;;1.10;;
72676;SDS011;60755;51.374;10.662;2023-04-24T13:07:11;1.30;;;1.30;;
72676;SDS011;60755;51.374;10.662;2023-04-24T13:09:38;1.27;;;1.27;;
72676;SDS011;60755;51.374;10.662;2023-04-24T13:12:04;0.80;;;0.80;;
72676;SDS011;60755;51.374;10.662;2023-04-24T13:14:31;0.90;;;0.90;;
72676;SDS011;60755;51.374;10.662;2023-04-24T13:16:58;0.90;;;0.90;;
72676;SDS011;60755;51.374;10.662;2023-04-24T13:19:27;0.90;;;0.90;;
72676;SDS011;60755;51.374;10.662;2023-04-24T13:21:54;1.27;;;1.00;;
72676;SDS011;60755;51.374;10.662;2023-04-24T13:24:22;0.90;;;0.90;;
72676;SDS011;60755;51.374;10.662;2023-04-24T13:26:50;0.80;;;0.80;;
72676;SDS011;60755;51.374;10.662;2023-04-24T13:29:17;0.90;;;0.90;;
72676;SDS011;60755;51.374;10.662;2023-04-24T13:31:44;0.80;;;0.80;;
72676;SDS011;60755;51.374;10.662;2023-04-24T13:34:12;2.50;;;1.00;;
72676;SDS011;60755;51.374;10.662;2023-04-24T13:36:40;0.83;;;0.70;;
72676;SDS011;60755;51.374;10.662;2023-04-24T13:39:07;0.70;;;0.70;;
72676;SDS011;60755;51.374;10.662;2023-04-24T13:41:34;0.57;;;0.57;;
72676;SDS011;60755;51.374;10.662;2023-04-24T13:44:01;1.73;;;1.00;;
72676;SDS011;60755;51.374;10.662;2023-04-24T13:46:28;0.70;;;0.70;;
72676;SDS011;60755;51.374;10.662;2023-04-24T13:48:55;0.63;;;0.63;;
72676;SDS011;60755;51.374;10.662;2023-04-24T13:51:23;1.23;;;0.60;;
72676;SDS011;60755;51.374;10.662;2023-04-24T13:53:53;0.80;;;0.80;;
72676;SDS011;60755;51.374;10.662;2023-04-24T13:56:22;0.50;;;0.50;;
72676;SDS011;60755;51.374;10.662;2023-04-24T13:58:49;0.60;;;0.60;;
72676;SDS011;60755;51.374;10.662;2023-04-24T14:01:16;0.60;;;0.60;;
72676;SDS011;60755;51.374;10.662;2023-04-24T14:03:43;1.00;;;1.00;;
72676;SDS011;60755;51.374;10.662;2023-04-24T14:06:10;0.60;;;0.60;;
72676;SDS011;60755;51.374;10.662;2023-04-24T14:08:37;0.60;;;0.60;;
72676;SDS011;60755;51.374;10.662;2023-04-24T14:11:05;0.67;;;0.67;;
72676;SDS011;60755;51.374;10.662;2023-04-24T14:13:32;0.60;;;0.60;;
72676;SDS011;60755;51.374;10.662;2023-04-24T14:15:59;1.17;;;0.70;;
72676;SDS011;60755;51.374;10.662;2023-04-24T14:18:26;0.90;;;0.90;;
72676;SDS011;60755;51.374;10.662;2023-04-24T14:20:53;1.10;;;1.10;;
72676;SDS011;60755;51.374;10.662;2023-04-24T14:23:20;0.80;;;0.80;;
72676;SDS011;60755;51.374;10.662;2023-04-24T14:25:47;1.00;;;1.00;;
72676;SDS011;60755;51.374;10.662;2023-04-24T14:28:18;0.90;;;0.90;;
72676;SDS011;60755;51.374;10.662;2023-04-24T14:30:45;1.10;;;1.10;;
72676;SDS011;60755;51.374;10.662;2023-04-24T14:33:13;1.13;;;1.13;;
72676;SDS011;60755;51.374;10.662;2023-04-24T14:35:40;1.10;;;1.10;;
72676;SDS011;60755;51.374;10.662;2023-04-24T14:38:08;0.90;;;0.90;;
72676;SDS011;60755;51.374;10.662;2023-04-24T14:40:35;0.90;;;0.90;;
72676;SDS011;60755;51.374;10.662;2023-04-24T14:43:02;0.80;;;0.80;;
72676;SDS011;60755;51.374;10.662;2023-04-24T14:45:31;0.80;;;0.80;;
72676;SDS011;60755;51.374;10.662;2023-04-24T14:47:57;0.70;;;0.70;;